Palmer, Texas
Current Conditions -  °F | °C
As of 5:55 PM on Sunday 21 Dec 2014 (Local Time) from KLNC Reporting Station
Overcast Overcast  
Wind Chill: 51°   Ceiling: 1900
Heat Index: 51°   Visibility: 10mi
Dew Point: 44°   Wind: 10mph
Humidity: 77%   Direction: 160°SSE
Pressure: 29.88"   Gusts: NA
Location:  32.43°N, 96.67°W
Report Text: KLNC 212355Z AUTO 16009KT 10SM OVC019 11/07 A2988 RMK AO2 T01050067 10106 20096
Loading
Personal Weather Stations






























Interactive Weather Map New forecast layout! Learn more

10-Day Weather Forecast

Advertisements
Track Severe Weather on mobile